createdAt,value
2023-01-18T00:01:30.789Z,3.40
2023-01-18T00:04:17.783Z,3.33
2023-01-18T00:07:04.748Z,3.40
2023-01-18T00:09:53.021Z,3.93
2023-01-18T00:12:40.008Z,3.50
2023-01-18T00:15:27.056Z,3.87
2023-01-18T00:18:14.056Z,4.03
2023-01-18T00:21:02.239Z,3.67
2023-01-18T00:23:49.242Z,3.80
2023-01-18T00:26:36.326Z,3.90
2023-01-18T00:29:23.245Z,3.73
2023-01-18T00:32:10.201Z,3.80
2023-01-18T00:34:57.227Z,3.57
2023-01-18T00:37:45.218Z,3.87
2023-01-18T00:40:32.361Z,3.83
2023-01-18T00:43:38.223Z,3.90
2023-01-18T00:46:29.752Z,4.60
2023-01-18T00:49:16.766Z,3.93
2023-01-18T00:52:03.837Z,4.00
2023-01-18T00:54:50.734Z,3.80
2023-01-18T00:57:37.686Z,4.10
2023-01-18T01:00:27.015Z,3.97
2023-01-18T01:03:16.871Z,4.40
2023-01-18T01:06:22.342Z,4.27
2023-01-18T01:09:09.742Z,4.87
2023-01-18T01:12:17.014Z,5.13
2023-01-18T01:15:22.554Z,5.33
2023-01-18T01:18:31.007Z,5.40
2023-01-18T01:21:36.613Z,4.93
2023-01-18T01:24:42.634Z,4.93
2023-01-18T01:27:29.608Z,4.80
2023-01-18T01:30:16.687Z,5.20
2023-01-18T01:33:03.699Z,4.93
2023-01-18T01:35:55.490Z,4.40
2023-01-18T01:38:42.926Z,4.40
2023-01-18T01:41:34.210Z,4.60
2023-01-18T01:44:21.058Z,4.50
2023-01-18T01:47:21.536Z,4.07
2023-01-18T01:50:18.593Z,4.50
2023-01-18T01:53:06.722Z,4.43
2023-01-18T01:55:53.718Z,4.20
2023-01-18T01:58:41.671Z,4.13
2023-01-18T02:01:29.632Z,4.23
2023-01-18T02:04:16.757Z,4.57
2023-01-18T02:07:04.120Z,4.30
2023-01-18T02:09:51.964Z,3.97
2023-01-18T02:12:41.019Z,4.33
2023-01-18T02:15:36.589Z,4.10
2023-01-18T02:18:34.108Z,3.77
2023-01-18T02:21:36.617Z,3.90
2023-01-18T02:25:05.151Z,3.70
2023-01-18T02:28:10.397Z,4.00
2023-01-18T02:31:15.503Z,4.43
2023-01-18T02:34:24.162Z,4.83
2023-01-18T02:37:35.582Z,4.77
2023-01-18T02:40:37.982Z,4.87
2023-01-18T02:43:45.057Z,4.33
2023-01-18T02:46:35.751Z,5.73
2023-01-18T02:49:27.273Z,6.30
2023-01-18T02:52:42.391Z,6.60
2023-01-18T02:55:45.722Z,7.40
2023-01-18T02:58:41.120Z,7.30
2023-01-18T03:01:36.380Z,7.50
2023-01-18T03:04:36.286Z,7.77
2023-01-18T03:07:35.148Z,7.03
2023-01-18T03:10:28.434Z,8.33
2023-01-18T03:13:24.351Z,8.17
2023-01-18T03:16:39.597Z,8.17
2023-01-18T03:20:03.173Z,8.37
2023-01-18T03:23:27.179Z,8.47
2023-01-18T03:26:18.216Z,8.20
2023-01-18T03:29:25.327Z,8.50
2023-01-18T03:32:33.463Z,8.30
2023-01-18T03:35:26.721Z,9.07
2023-01-18T03:38:15.076Z,8.77
2023-01-18T03:41:03.160Z,9.97
2023-01-18T03:43:54.614Z,9.07
2023-01-18T03:46:43.733Z,9.20
2023-01-18T03:49:32.475Z,9.10
2023-01-18T03:52:25.146Z,9.57
2023-01-18T03:55:26.211Z,8.47
2023-01-18T03:58:17.985Z,8.97
2023-01-18T04:01:06.299Z,8.77
2023-01-18T04:03:53.526Z,8.47
2023-01-18T04:06:40.748Z,8.20
2023-01-18T04:09:27.712Z,8.87
2023-01-18T04:12:14.740Z,8.60
2023-01-18T04:15:02.537Z,8.27
2023-01-18T04:17:53.078Z,8.90
2023-01-18T04:20:40.000Z,9.40
2023-01-18T04:23:27.690Z,8.87
2023-01-18T04:26:16.675Z,9.57
2023-01-18T04:29:04.347Z,8.70
2023-01-18T04:31:51.418Z,7.77
2023-01-18T04:34:38.403Z,7.60
2023-01-18T04:37:30.994Z,7.87
2023-01-18T04:40:18.214Z,7.97
2023-01-18T04:43:05.172Z,8.13
2023-01-18T04:45:56.116Z,7.40
2023-01-18T04:48:43.020Z,7.43
2023-01-18T04:51:31.347Z,7.93
2023-01-18T04:54:19.154Z,8.37
2023-01-18T04:57:06.104Z,7.87
2023-01-18T04:59:53.058Z,7.33
2023-01-18T05:02:40.035Z,7.27
2023-01-18T05:05:27.063Z,7.73
2023-01-18T05:08:14.004Z,7.47
2023-01-18T05:11:06.306Z,7.00
2023-01-18T05:13:53.457Z,6.80
2023-01-18T05:16:40.596Z,6.77
2023-01-18T05:19:30.486Z,6.87
2023-01-18T05:22:17.466Z,7.50
2023-01-18T05:25:05.693Z,7.07
2023-01-18T05:27:52.619Z,8.77
2023-01-18T05:30:42.056Z,8.90
2023-01-18T05:33:29.356Z,8.57
2023-01-18T05:36:16.759Z,9.17
2023-01-18T05:39:03.733Z,9.87
2023-01-18T05:41:50.856Z,10.90
2023-01-18T05:44:37.851Z,9.90
2023-01-18T05:47:24.819Z,8.23
2023-01-18T05:50:12.470Z,8.33
2023-01-18T05:53:00.266Z,8.40
2023-01-18T05:55:54.851Z,8.47
2023-01-18T05:58:41.763Z,8.70
2023-01-18T06:01:28.889Z,7.80
2023-01-18T06:04:15.834Z,7.60
2023-01-18T06:07:02.867Z,8.20
2023-01-18T06:09:49.813Z,7.37
2023-01-18T06:12:36.810Z,6.90
2023-01-18T06:15:23.739Z,6.93
2023-01-18T06:18:10.669Z,7.10
2023-01-18T06:21:01.304Z,6.43
2023-01-18T06:23:48.561Z,6.60
2023-01-18T06:26:35.509Z,8.27
2023-01-18T06:29:22.413Z,7.87
2023-01-18T06:32:09.443Z,6.83
2023-01-18T06:34:56.372Z,6.33
2023-01-18T06:37:45.000Z,6.13
2023-01-18T06:40:31.919Z,6.63
2023-01-18T06:43:18.906Z,7.17
2023-01-18T06:46:09.325Z,6.80
2023-01-18T06:48:56.466Z,5.90
2023-01-18T06:51:43.411Z,7.03
2023-01-18T06:54:30.924Z,7.23
2023-01-18T06:57:17.898Z,7.37
2023-01-18T07:00:06.211Z,7.30
2023-01-18T07:02:53.215Z,7.00
2023-01-18T07:05:40.314Z,5.70
2023-01-18T07:08:31.155Z,5.73
2023-01-18T07:11:24.653Z,6.27
2023-01-18T07:14:12.828Z,6.40
2023-01-18T07:17:00.190Z,6.17
2023-01-18T07:19:47.399Z,6.00
2023-01-18T07:22:34.596Z,6.23
2023-01-18T07:25:22.612Z,7.00
2023-01-18T07:28:09.775Z,6.03
2023-01-18T07:30:57.026Z,5.90
2023-01-18T07:33:44.415Z,5.73
2023-01-18T07:36:31.537Z,5.70
2023-01-18T07:39:18.663Z,6.23
2023-01-18T07:42:06.996Z,6.07
2023-01-18T07:44:54.986Z,5.93
2023-01-18T07:47:43.011Z,6.00
2023-01-18T07:50:30.349Z,6.10
2023-01-18T07:53:17.387Z,6.20
2023-01-18T07:56:07.004Z,6.07
2023-01-18T07:58:55.588Z,6.10
2023-01-18T08:01:43.036Z,5.63
2023-01-18T08:04:30.097Z,5.47
2023-01-18T08:07:18.727Z,6.10
2023-01-18T08:10:05.879Z,6.17
2023-01-18T08:12:52.951Z,5.93
2023-01-18T08:15:40.552Z,6.30
2023-01-18T08:18:28.197Z,5.60
2023-01-18T08:21:15.823Z,6.23
2023-01-18T08:24:03.569Z,5.87
2023-01-18T08:26:50.624Z,5.83
2023-01-18T08:29:37.647Z,6.37
2023-01-18T08:32:24.962Z,6.40
2023-01-18T08:35:11.996Z,6.20
2023-01-18T08:38:01.424Z,5.67
2023-01-18T08:40:48.365Z,5.77
2023-01-18T08:43:35.978Z,5.30
2023-01-18T08:46:24.565Z,5.40
2023-01-18T08:49:16.492Z,5.47
2023-01-18T08:52:10.962Z,5.07
2023-01-18T08:54:58.019Z,5.77
2023-01-18T08:58:06.430Z,4.73
2023-01-18T09:00:56.554Z,5.10
2023-01-18T09:03:44.935Z,5.27
2023-01-18T09:06:33.792Z,5.10
2023-01-18T09:09:27.123Z,5.20
2023-01-18T09:12:14.123Z,4.97
2023-01-18T09:15:01.635Z,5.57
2023-01-18T09:17:48.607Z,5.30
2023-01-18T09:20:36.407Z,5.17
2023-01-18T09:23:30.099Z,4.80
2023-01-18T09:26:20.245Z,4.87
2023-01-18T09:29:20.636Z,4.60
2023-01-18T09:32:10.643Z,5.07
2023-01-18T09:34:58.114Z,4.90
2023-01-18T09:37:46.139Z,4.67
2023-01-18T09:40:44.080Z,4.87
2023-01-18T09:43:39.303Z,4.57
2023-01-18T09:46:28.027Z,5.03
2023-01-18T09:49:19.819Z,5.27
2023-01-18T09:53:05.772Z,4.80
2023-01-18T09:56:01.009Z,4.90
2023-01-18T09:59:06.025Z,4.90
2023-01-18T10:01:55.948Z,5.00
2023-01-18T10:04:49.780Z,4.93
2023-01-18T10:07:48.724Z,5.03
2023-01-18T10:10:39.918Z,5.17
2023-01-18T10:13:56.518Z,4.77
2023-01-18T10:16:43.721Z,4.57
2023-01-18T10:19:32.305Z,4.60
2023-01-18T10:22:34.236Z,4.50
2023-01-18T10:25:43.409Z,4.87
2023-01-18T10:28:50.567Z,4.70
2023-01-18T10:31:57.759Z,4.63
2023-01-18T10:34:49.314Z,5.13
2023-01-18T10:37:46.671Z,5.07
2023-01-18T10:40:34.532Z,5.13
2023-01-18T10:43:25.128Z,5.80
2023-01-18T10:46:17.304Z,5.43
2023-01-18T10:49:04.439Z,6.17
2023-01-18T10:51:51.359Z,5.93
2023-01-18T10:54:38.452Z,5.40
2023-01-18T10:57:47.922Z,5.70
2023-01-18T11:00:35.794Z,5.87
2023-01-18T11:03:26.156Z,6.03
2023-01-18T11:06:17.054Z,5.97
2023-01-18T11:09:04.384Z,6.87
2023-01-18T11:12:09.779Z,6.27
2023-01-18T11:14:57.153Z,6.33
2023-01-18T11:17:58.581Z,7.00
2023-01-18T11:20:50.087Z,7.00
2023-01-18T11:23:44.671Z,7.30
2023-01-18T11:26:31.851Z,7.63
2023-01-18T11:29:21.525Z,8.13
2023-01-18T11:32:23.960Z,7.33
2023-01-18T11:35:11.296Z,7.73
2023-01-18T11:38:00.468Z,7.57
2023-01-18T11:40:48.195Z,7.20
2023-01-18T11:43:37.850Z,7.77
2023-01-18T11:46:31.718Z,7.63
2023-01-18T11:49:42.382Z,7.60
2023-01-18T11:52:43.575Z,7.43
2023-01-18T11:55:41.541Z,7.90
2023-01-18T11:58:29.866Z,7.50
2023-01-18T12:01:21.646Z,7.43
2023-01-18T12:04:14.426Z,6.73
2023-01-18T12:07:20.890Z,6.80
2023-01-18T12:10:38.131Z,6.60
2023-01-18T12:13:40.181Z,6.00
2023-01-18T12:16:59.389Z,6.33
2023-01-18T12:19:58.417Z,6.30
2023-01-18T12:23:13.197Z,5.17
2023-01-18T12:26:37.867Z,5.07
2023-01-18T12:29:40.216Z,3.93
2023-01-18T12:32:33.528Z,3.80
2023-01-18T12:35:51.877Z,3.67
2023-01-18T12:38:45.317Z,3.37
2023-01-18T12:41:43.054Z,3.10
2023-01-18T12:45:04.724Z,2.90
2023-01-18T12:48:04.746Z,3.20
2023-01-18T12:50:52.065Z,2.87
2023-01-18T12:54:19.743Z,2.90
2023-01-18T12:57:07.843Z,2.90
2023-01-18T13:00:16.321Z,2.50
2023-01-18T13:03:10.434Z,2.10
2023-01-18T13:06:00.128Z,2.60
2023-01-18T13:08:57.203Z,2.20
2023-01-18T13:11:44.896Z,2.20
2023-01-18T13:14:46.320Z,2.23
2023-01-18T13:17:41.263Z,1.80
2023-01-18T13:20:51.623Z,1.77
2023-01-18T13:24:03.107Z,2.20
2023-01-18T13:26:50.130Z,1.97
2023-01-18T13:29:37.981Z,2.40
2023-01-18T13:32:31.108Z,2.23
2023-01-18T13:35:38.289Z,2.20
2023-01-18T13:38:40.681Z,2.03
2023-01-18T13:41:30.402Z,2.27
2023-01-18T13:44:30.233Z,2.10
2023-01-18T13:47:35.519Z,2.23
2023-01-18T13:50:28.628Z,2.00
2023-01-18T13:53:15.605Z,2.23
2023-01-18T13:56:03.825Z,2.07
2023-01-18T13:58:54.997Z,2.33
2023-01-18T14:01:44.777Z,2.27
2023-01-18T14:04:34.454Z,2.30
2023-01-18T14:07:23.024Z,2.40
2023-01-18T14:10:36.546Z,2.30
2023-01-18T14:13:52.907Z,2.30
2023-01-18T14:17:13.456Z,2.20
2023-01-18T14:20:31.759Z,2.20
2023-01-18T14:23:25.513Z,2.87
2023-01-18T14:26:16.778Z,2.50
2023-01-18T14:29:38.979Z,2.67
2023-01-18T14:32:33.251Z,2.60
2023-01-18T14:35:25.473Z,2.40
2023-01-18T14:38:18.821Z,2.80
2023-01-18T14:41:08.409Z,2.70
2023-01-18T14:43:55.415Z,2.60
2023-01-18T14:46:42.947Z,3.00
2023-01-18T14:49:35.014Z,2.80
2023-01-18T14:52:27.788Z,3.70
2023-01-18T14:55:27.804Z,3.57
2023-01-18T14:58:18.839Z,3.30
2023-01-18T15:01:09.138Z,2.50
2023-01-18T15:03:59.258Z,2.30
2023-01-18T15:06:59.563Z,2.30
2023-01-18T15:09:47.531Z,2.40
2023-01-18T15:12:35.575Z,2.20
2023-01-18T15:15:28.340Z,2.40
2023-01-18T15:18:19.196Z,2.73
2023-01-18T15:21:15.360Z,2.43
2023-01-18T15:24:06.582Z,3.20
2023-01-18T15:26:58.761Z,3.90
2023-01-18T15:29:53.984Z,3.50
2023-01-18T15:32:41.229Z,8.00
2023-01-18T15:38:17.690Z,3.00
2023-01-18T15:41:11.023Z,2.80
2023-01-18T15:43:58.468Z,3.10
2023-01-18T15:46:45.572Z,2.67
2023-01-18T15:49:32.699Z,2.50
2023-01-18T15:52:47.504Z,2.70
2023-01-18T15:55:52.634Z,2.73
2023-01-18T15:58:43.134Z,3.00
2023-01-18T16:01:35.016Z,2.77
2023-01-18T16:04:23.231Z,3.20
2023-01-18T16:07:37.247Z,2.90
2023-01-18T16:10:30.225Z,3.03
2023-01-18T16:13:26.146Z,2.80
2023-01-18T16:16:20.137Z,2.90
2023-01-18T16:19:21.965Z,3.80
2023-01-18T16:22:29.523Z,3.53
2023-01-18T16:25:20.906Z,3.27
2023-01-18T16:28:07.821Z,3.33
2023-01-18T16:30:55.193Z,3.30
2023-01-18T16:33:42.194Z,2.87
2023-01-18T16:36:34.740Z,3.40
2023-01-18T16:39:25.048Z,5.10
2023-01-18T16:42:12.601Z,4.87
2023-01-18T16:44:59.590Z,3.80
2023-01-18T16:47:46.578Z,3.30
2023-01-18T16:50:33.609Z,3.40
2023-01-18T16:53:20.628Z,3.60
2023-01-18T16:56:08.631Z,3.33
2023-01-18T16:58:55.605Z,3.33
2023-01-18T17:01:42.805Z,3.37
2023-01-18T17:04:30.358Z,3.20
2023-01-18T17:07:17.292Z,4.40
2023-01-18T17:10:31.181Z,4.63
2023-01-18T17:13:18.308Z,8.43
2023-01-18T17:16:05.738Z,15.47
2023-01-18T17:18:52.658Z,10.30
2023-01-18T17:21:39.897Z,7.60
2023-01-18T17:24:26.880Z,9.10
2023-01-18T17:27:14.739Z,7.70
2023-01-18T17:30:01.922Z,10.30
2023-01-18T17:32:49.531Z,6.63
2023-01-18T17:35:36.469Z,6.90
2023-01-18T17:38:26.431Z,5.37
2023-01-18T17:41:27.620Z,5.57
2023-01-18T17:44:15.337Z,6.20
2023-01-18T17:47:02.548Z,5.13
2023-01-18T17:49:49.467Z,4.47
2023-01-18T17:52:38.444Z,4.47
2023-01-18T17:55:34.100Z,6.77
2023-01-18T17:58:21.791Z,7.23
2023-01-18T18:01:11.685Z,8.30
2023-01-18T18:03:58.671Z,7.20
2023-01-18T18:06:53.640Z,5.93
2023-01-18T18:09:42.640Z,5.80
2023-01-18T18:12:33.912Z,5.20
2023-01-18T18:15:22.277Z,4.30
2023-01-18T18:18:21.927Z,4.30
2023-01-18T18:21:09.667Z,4.53
2023-01-18T18:23:57.150Z,4.37
2023-01-18T18:26:44.186Z,4.70
2023-01-18T18:29:31.157Z,4.10
2023-01-18T18:32:18.138Z,4.00
2023-01-18T18:35:14.831Z,4.00
2023-01-18T18:38:10.493Z,4.23
2023-01-18T18:41:05.695Z,4.03
2023-01-18T18:43:52.812Z,4.43
2023-01-18T18:46:39.800Z,4.00
2023-01-18T18:49:26.856Z,4.30
2023-01-18T18:52:13.800Z,4.13
2023-01-18T18:55:00.715Z,3.83
2023-01-18T18:57:47.797Z,4.20
2023-01-18T19:00:34.791Z,4.23
2023-01-18T19:03:22.498Z,4.30
2023-01-18T19:06:10.655Z,4.23
2023-01-18T19:08:57.592Z,3.77
2023-01-18T19:11:54.307Z,4.00
2023-01-18T19:14:41.912Z,3.97
2023-01-18T19:17:31.122Z,3.50
2023-01-18T19:20:19.852Z,3.90
2023-01-18T19:23:06.945Z,3.77
2023-01-18T19:25:53.889Z,4.13
2023-01-18T19:28:42.023Z,3.65
2023-01-18T19:31:29.924Z,3.83
2023-01-18T19:34:18.197Z,3.87
2023-01-18T19:37:05.369Z,4.07
2023-01-18T19:39:52.383Z,3.50
2023-01-18T19:42:39.951Z,4.23
2023-01-18T19:45:28.843Z,3.87
2023-01-18T19:48:15.963Z,3.97
2023-01-18T19:51:21.583Z,3.97
2023-01-18T19:54:11.107Z,3.80
2023-01-18T19:56:58.234Z,4.27
2023-01-18T19:59:45.235Z,4.00
2023-01-18T20:02:32.365Z,4.37
2023-01-18T20:05:20.214Z,3.87
2023-01-18T20:08:08.287Z,4.23
2023-01-18T20:10:55.656Z,3.90
2023-01-18T20:13:48.422Z,4.90
2023-01-18T20:16:35.468Z,4.10
2023-01-18T20:19:22.633Z,5.50
2023-01-18T20:22:10.496Z,7.77
2023-01-18T20:24:57.413Z,7.00
2023-01-18T20:27:45.321Z,6.10
2023-01-18T20:30:32.422Z,5.60
2023-01-18T20:33:19.394Z,5.60
2023-01-18T20:36:07.412Z,6.23
2023-01-18T20:38:54.357Z,5.47
2023-01-18T20:41:41.407Z,6.00
2023-01-18T20:44:28.564Z,5.00
2023-01-18T20:47:15.836Z,5.77
2023-01-18T20:50:04.090Z,7.13
2023-01-18T20:52:53.087Z,6.70
2023-01-18T20:55:40.000Z,5.40
2023-01-18T20:58:26.961Z,5.70
2023-01-18T21:01:16.382Z,6.00
2023-01-18T21:04:04.587Z,5.90
2023-01-18T21:06:51.558Z,5.13
2023-01-18T21:09:38.670Z,5.07
2023-01-18T21:12:25.590Z,4.77
2023-01-18T21:15:12.590Z,4.17
2023-01-18T21:18:01.639Z,4.13
2023-01-18T21:20:55.166Z,4.13
2023-01-18T21:23:42.253Z,4.07
2023-01-18T21:26:29.207Z,4.13
2023-01-18T21:29:16.277Z,4.93
2023-01-18T21:32:03.752Z,5.03
2023-01-18T21:34:50.725Z,4.00
2023-01-18T21:37:38.043Z,3.97
2023-01-18T21:40:24.984Z,4.40
2023-01-18T21:43:38.759Z,3.83
2023-01-18T21:46:25.819Z,3.83
2023-01-18T21:49:47.092Z,3.70
2023-01-18T21:52:58.008Z,3.93
2023-01-18T21:55:44.929Z,3.77
2023-01-18T21:58:50.399Z,3.93
2023-01-18T22:01:40.653Z,4.10
2023-01-18T22:04:46.523Z,4.00
2023-01-18T22:07:35.107Z,4.13
2023-01-18T22:10:22.186Z,4.30
2023-01-18T22:13:09.098Z,4.33
2023-01-18T22:15:56.653Z,4.30
2023-01-18T22:18:43.568Z,4.70
2023-01-18T22:21:31.880Z,4.63
2023-01-18T22:24:19.071Z,4.70
2023-01-18T22:27:06.895Z,4.50
2023-01-18T22:29:53.954Z,4.20
2023-01-18T22:32:40.898Z,4.30
2023-01-18T22:35:30.456Z,4.10
2023-01-18T22:38:17.683Z,4.27
2023-01-18T22:41:06.645Z,4.40
2023-01-18T22:43:55.168Z,4.17
2023-01-18T22:46:42.080Z,4.20
2023-01-18T22:49:29.011Z,3.70
2023-01-18T22:52:16.078Z,3.97
2023-01-18T22:55:03.789Z,4.43
2023-01-18T22:57:50.871Z,4.30
2023-01-18T23:00:38.339Z,4.47
2023-01-18T23:03:25.339Z,4.33
2023-01-18T23:06:12.820Z,4.17
2023-01-18T23:08:59.739Z,4.30
2023-01-18T23:11:47.876Z,4.60
2023-01-18T23:14:53.425Z,4.30
2023-01-18T23:17:40.588Z,4.37
2023-01-18T23:20:27.763Z,4.40
2023-01-18T23:23:14.727Z,4.63
2023-01-18T23:26:01.631Z,4.10
2023-01-18T23:28:48.600Z,4.37
2023-01-18T23:31:35.690Z,4.37
2023-01-18T23:34:22.667Z,4.67
2023-01-18T23:37:09.699Z,4.27
2023-01-18T23:40:15.585Z,4.33
2023-01-18T23:43:21.204Z,4.57
2023-01-18T23:46:26.735Z,4.53
2023-01-18T23:49:32.828Z,5.13
2023-01-18T23:52:38.520Z,4.50
2023-01-18T23:55:25.459Z,4.97
2023-01-18T23:58:12.686Z,4.67
